sensor_id;sensor_type;location;lat;lon;timestamp;pressure;altitude;pressure_sealevel;temperature;humidity
39823;BME280;25499;53.958;10.970;2023-05-11T05:28:36;101406.81;;;13.02;100.00
39823;BME280;25499;53.958;10.970;2023-05-11T05:31:04;101405.91;;;13.11;100.00
39823;BME280;25499;53.958;10.970;2023-05-11T05:33:30;101407.63;;;13.16;100.00
39823;BME280;25499;53.958;10.970;2023-05-11T05:35:57;101399.78;;;13.21;100.00
39823;BME280;25499;53.958;10.970;2023-05-11T05:38:24;101405.88;;;13.24;100.00
39823;BME280;25499;53.958;10.970;2023-05-11T05:40:51;101401.50;;;13.22;100.00
39823;BME280;25499;53.958;10.970;2023-05-11T05:43:18;101404.09;;;13.25;100.00
39823;BME280;25499;53.958;10.970;2023-05-11T05:45:47;101408.47;;;13.24;100.00
39823;BME280;25499;53.958;10.970;2023-05-11T05:48:14;101403.25;;;13.23;100.00
39823;BME280;25499;53.958;10.970;2023-05-11T05:50:41;101417.19;;;13.22;100.00
39823;BME280;25499;53.958;10.970;2023-05-11T05:53:07;101419.78;;;13.28;100.00
39823;BME280;25499;53.958;10.970;2023-05-11T05:55:34;101425.88;;;13.29;100.00
39823;BME280;25499;53.958;10.970;2023-05-11T05:58:01;101423.28;;;13.32;100.00
39823;BME280;25499;53.958;10.970;2023-05-11T06:00:27;101418.94;;;13.31;100.00
39823;BME280;25499;53.958;10.970;2023-05-11T06:02:55;101426.78;;;13.21;100.00
39823;BME280;25499;53.958;10.970;2023-05-11T06:05:22;101432.00;;;13.23;100.00
39823;BME280;25499;53.958;10.970;2023-05-11T06:07:49;101428.53;;;13.18;100.00
39823;BME280;25499;53.958;10.970;2023-05-11T06:10:15;101436.38;;;13.19;100.00
39823;BME280;25499;53.958;10.970;2023-05-11T06:12:42;101442.47;;;13.18;100.00
39823;BME280;25499;53.958;10.970;2023-05-11T06:15:10;101445.09;;;13.18;100.00
39823;BME280;25499;53.958;10.970;2023-05-11T06:17:36;101445.09;;;13.20;100.00
39823;BME280;25499;53.958;10.970;2023-05-11T06:20:07;101439.88;;;13.18;100.00
39823;BME280;25499;53.958;10.970;2023-05-11T06:22:34;101438.16;;;13.16;100.00
39823;BME280;25499;53.958;10.970;2023-05-11T06:25:00;101439.88;;;13.18;100.00
39823;BME280;25499;53.958;10.970;2023-05-11T06:27:27;101445.09;;;13.20;100.00
39823;BME280;25499;53.958;10.970;2023-05-11T06:29:54;101443.38;;;13.19;100.00
39823;BME280;25499;53.958;10.970;2023-05-11T06:32:21;101449.47;;;13.19;100.00
39823;BME280;25499;53.958;10.970;2023-05-11T06:34:47;101448.56;;;13.25;100.00
39823;BME280;25499;53.958;10.970;2023-05-11T06:37:16;101449.41;;;13.27;100.00
39823;BME280;25499;53.958;10.970;2023-05-11T06:39:45;101448.59;;;13.34;100.00
39823;BME280;25499;53.958;10.970;2023-05-11T06:42:11;101450.31;;;13.31;100.00
39823;BME280;25499;53.958;10.970;2023-05-11T06:44:39;101452.91;;;13.32;100.00
39823;BME280;25499;53.958;10.970;2023-05-11T06:47:06;101455.56;;;13.20;100.00
39823;BME280;25499;53.958;10.970;2023-05-11T06:49:33;101455.53;;;13.23;100.00
39823;BME280;25499;53.958;10.970;2023-05-11T06:52:00;101460.78;;;13.18;100.00
39823;BME280;25499;53.958;10.970;2023-05-11T06:54:28;101453.84;;;13.16;100.00
39823;BME280;25499;53.958;10.970;2023-05-11T06:56:54;101455.59;;;13.14;100.00
39823;BME280;25499;53.958;10.970;2023-05-11T06:59:21;101455.59;;;13.14;100.00
39823;BME280;25499;53.958;10.970;2023-05-11T07:01:48;101460.81;;;13.11;100.00
39823;BME280;25499;53.958;10.970;2023-05-11T07:04:15;101467.75;;;13.15;100.00
39823;BME280;25499;53.958;10.970;2023-05-11T07:06:43;101470.41;;;13.05;100.00
39823;BME280;25499;53.958;10.970;2023-05-11T07:09:09;101470.41;;;13.02;100.00
39823;BME280;25499;53.958;10.970;2023-05-11T07:11:38;101471.31;;;12.94;100.00
39823;BME280;25499;53.958;10.970;2023-05-11T07:14:05;101474.78;;;12.91;100.00
39823;BME280;25499;53.958;10.970;2023-05-11T07:16:33;101480.03;;;12.83;100.00
39823;BME280;25499;53.958;10.970;2023-05-11T07:19:02;101482.59;;;12.88;100.00
39823;BME280;25499;53.958;10.970;2023-05-11T07:21:29;101481.75;;;12.89;100.00
39823;BME280;25499;53.958;10.970;2023-05-11T07:23:56;101486.09;;;12.96;100.00
39823;BME280;25499;53.958;10.970;2023-05-11T07:26:23;101483.47;;;13.02;100.00
39823;BME280;25499;53.958;10.970;2023-05-11T07:28:51;101483.47;;;13.05;100.00
39823;BME280;25499;53.958;10.970;2023-05-11T07:31:18;101479.97;;;13.08;100.00
39823;BME280;25499;53.958;10.970;2023-05-11T07:33:45;101484.34;;;13.14;100.00
39823;BME280;25499;53.958;10.970;2023-05-11T07:36:12;101474.75;;;13.16;100.00
39823;BME280;25499;53.958;10.970;2023-05-11T07:38:39;101476.47;;;13.17;100.00
39823;BME280;25499;53.958;10.970;2023-05-11T07:41:06;101477.38;;;13.13;100.00
39823;BME280;25499;53.958;10.970;2023-05-11T07:43:32;101481.69;;;13.17;100.00
39823;BME280;25499;53.958;10.970;2023-05-11T07:46:00;101482.56;;;13.23;100.00
39823;BME280;25499;53.958;10.970;2023-05-11T07:48:28;101483.44;;;13.33;100.00
39823;BME280;25499;53.958;10.970;2023-05-11T07:50:55;101481.69;;;13.38;100.00
39823;BME280;25499;53.958;10.970;2023-05-11T07:53:21;101487.75;;;13.50;100.00
39823;BME280;25499;53.958;10.970;2023-05-11T07:55:52;101487.72;;;13.62;100.00
39823;BME280;25499;53.958;10.970;2023-05-11T07:58:19;101480.69;;;13.76;100.00
39823;BME280;25499;53.958;10.970;2023-05-11T08:00:47;101480.56;;;13.95;100.00
39823;BME280;25499;53.958;10.970;2023-05-11T08:03:16;101486.63;;;14.09;100.00
39823;BME280;25499;53.958;10.970;2023-05-11T08:05:43;101490.91;;;14.21;100.00
39823;BME280;25499;53.958;10.970;2023-05-11T08:08:10;101477.69;;;14.40;100.00
39823;BME280;25499;53.958;10.970;2023-05-11T08:10:36;101483.78;;;14.42;100.00
39823;BME280;25499;53.958;10.970;2023-05-11T08:13:04;101487.16;;;14.56;100.00
39823;BME280;25499;53.958;10.970;2023-05-11T08:15:31;101489.66;;;14.73;100.00
39823;BME280;25499;53.958;10.970;2023-05-11T08:17:58;101482.69;;;14.73;100.00
39823;BME280;25499;53.958;10.970;2023-05-11T08:20:26;101487.88;;;14.78;100.00
39823;BME280;25499;53.958;10.970;2023-05-11T08:22:53;101490.47;;;14.81;100.00
39823;BME280;25499;53.958;10.970;2023-05-11T08:25:20;101490.44;;;14.89;100.00
39823;BME280;25499;53.958;10.970;2023-05-11T08:27:46;101488.50;;;15.06;100.00
39823;BME280;25499;53.958;10.970;2023-05-11T08:30:13;101484.97;;;15.10;100.00
39823;BME280;25499;53.958;10.970;2023-05-11T08:32:40;101490.16;;;15.14;100.00
39823;BME280;25499;53.958;10.970;2023-05-11T08:35:07;101490.13;;;15.20;100.00
39823;BME280;25499;53.958;10.970;2023-05-11T08:37:35;101495.25;;;15.29;100.00
39823;BME280;25499;53.958;10.970;2023-05-11T08:40:02;101503.03;;;15.40;100.00
39823;BME280;25499;53.958;10.970;2023-05-11T08:42:32;101496.81;;;15.48;100.00
39823;BME280;25499;53.958;10.970;2023-05-11T08:45:00;101500.28;;;15.49;100.00
39823;BME280;25499;53.958;10.970;2023-05-11T08:47:28;101503.56;;;15.68;100.00
39823;BME280;25499;53.958;10.970;2023-05-11T08:49:55;101505.19;;;15.81;100.00
39823;BME280;25499;53.958;10.970;2023-05-11T08:52:24;101499.00;;;15.89;100.00
39823;BME280;25499;53.958;10.970;2023-05-11T08:54:52;101505.03;;;15.94;100.00
39823;BME280;25499;53.958;10.970;2023-05-11T08:57:19;101490.09;;;15.99;100.00
39823;BME280;25499;53.958;10.970;2023-05-11T08:59:47;101502.19;;;16.11;100.00
39823;BME280;25499;53.958;10.970;2023-05-11T09:02:16;101500.22;;;16.25;100.00
39823;BME280;25499;53.958;10.970;2023-05-11T09:04:44;101492.47;;;16.17;100.00
39823;BME280;25499;53.958;10.970;2023-05-11T09:07:11;101495.03;;;16.20;100.00
39823;BME280;25499;53.958;10.970;2023-05-11T09:09:40;101499.41;;;16.21;100.00
39823;BME280;25499;53.958;10.970;2023-05-11T09:12:08;101501.09;;;16.24;100.00
39823;BME280;25499;53.958;10.970;2023-05-11T09:14:35;101494.00;;;16.31;100.00
39823;BME280;25499;53.958;10.970;2023-05-11T09:17:02;101497.16;;;16.53;100.00
39823;BME280;25499;53.958;10.970;2023-05-11T09:19:29;101499.63;;;16.64;100.00
39823;BME280;25499;53.958;10.970;2023-05-11T09:21:57;101493.56;;;16.60;100.00
39823;BME280;25499;53.958;10.970;2023-05-11T09:24:24;101494.94;;;16.83;100.00
39823;BME280;25499;53.958;10.970;2023-05-11T09:27:05;101495.34;;;17.11;100.00
39823;BME280;25499;53.958;10.970;2023-05-11T09:29:34;101495.13;;;17.23;100.00
39823;BME280;25499;53.958;10.970;2023-05-11T09:32:01;101483.41;;;17.40;100.00
39823;BME280;25499;53.958;10.970;2023-05-11T09:34:28;101491.66;;;17.65;100.00
39823;BME280;25499;53.958;10.970;2023-05-11T09:36:55;101495.47;;;18.33;100.00
39823;BME280;25499;53.958;10.970;2023-05-11T09:39:28;101489.38;;;18.67;100.00
39823;BME280;25499;53.958;10.970;2023-05-11T09:42:10;101487.69;;;19.31;100.00
39823;BME280;25499;53.958;10.970;2023-05-11T09:44:38;101467.63;;;19.87;100.00
39823;BME280;25499;53.958;10.970;2023-05-11T09:47:10;101454.75;;;20.04;99.12
39823;BME280;25499;53.958;10.970;2023-05-11T09:49:37;101462.94;;;20.25;97.75
39823;BME280;25499;53.958;10.970;2023-05-11T09:52:05;101446.56;;;20.40;93.77
39823;BME280;25499;53.958;10.970;2023-05-11T09:54:39;101444.19;;;20.59;91.57
39823;BME280;25499;53.958;10.970;2023-05-11T09:57:21;101433.16;;;20.98;87.51
39823;BME280;25499;53.958;10.970;2023-05-11T09:59:51;101445.75;;;20.92;88.81
39823;BME280;25499;53.958;10.970;2023-05-11T10:02:20;101443.09;;;21.17;86.62
39823;BME280;25499;53.958;10.970;2023-05-11T10:04:47;101437.69;;;21.43;84.77
39823;BME280;25499;53.958;10.970;2023-05-11T10:07:25;101439.28;;;21.24;83.58
39823;BME280;25499;53.958;10.970;2023-05-11T10:09:53;101444.53;;;21.26;84.36
39823;BME280;25499;53.958;10.970;2023-05-11T10:12:21;101431.88;;;21.34;81.08
39823;BME280;25499;53.958;10.970;2023-05-11T10:14:54;101428.13;;;21.39;80.49
39823;BME280;25499;53.958;10.970;2023-05-11T10:17:24;101438.81;;;21.36;81.47
39823;BME280;25499;53.958;10.970;2023-05-11T10:19:53;101433.38;;;21.65;81.27
39823;BME280;25499;53.958;10.970;2023-05-11T10:22:21;101426.41;;;21.84;79.99
39823;BME280;25499;53.958;10.970;2023-05-11T10:24:49;101418.63;;;22.03;79.14
39823;BME280;25499;53.958;10.970;2023-05-11T10:27:16;101418.28;;;21.89;79.97
39823;BME280;25499;53.958;10.970;2023-05-11T10:29:43;101419.47;;;22.04;79.20
39823;BME280;25499;53.958;10.970;2023-05-11T10:32:12;101391.03;;;22.29;75.90
39823;BME280;25499;53.958;10.970;2023-05-11T10:34:40;101376.66;;;22.13;74.19
39823;BME280;25499;53.958;10.970;2023-05-11T10:37:08;101401.66;;;22.29;76.06
39823;BME280;25499;53.958;10.970;2023-05-11T10:39:36;101393.00;;;22.24;74.53
39823;BME280;25499;53.958;10.970;2023-05-11T10:42:16;101385.81;;;22.26;73.64
39823;BME280;25499;53.958;10.970;2023-05-11T10:45:03;101375.59;;;22.39;72.50
39823;BME280;25499;53.958;10.970;2023-05-11T10:48:04;101381.69;;;22.62;73.49
39823;BME280;25499;53.958;10.970;2023-05-11T10:50:46;101382.78;;;22.58;73.18
39823;BME280;25499;53.958;10.970;2023-05-11T10:53:40;101375.34;;;22.66;72.23
39823;BME280;25499;53.958;10.970;2023-05-11T10:56:25;101362.81;;;23.09;70.40
39823;BME280;25499;53.958;10.970;2023-05-11T10:59:09;101354.22;;;22.63;69.33
39823;BME280;25499;53.958;10.970;2023-05-11T11:01:41;101370.75;;;22.69;71.26
39823;BME280;25499;53.958;10.970;2023-05-11T11:04:10;101361.66;;;23.15;70.36
39823;BME280;25499;53.958;10.970;2023-05-11T11:06:39;101343.09;;;22.94;68.61
39823;BME280;25499;53.958;10.970;2023-05-11T11:09:11;101353.63;;;22.77;69.41
39823;BME280;25499;53.958;10.970;2023-05-11T11:11:44;101350.13;;;22.95;68.54
39823;BME280;25499;53.958;10.970;2023-05-11T11:14:13;101300.59;;;22.94;65.24
39823;BME280;25499;53.958;10.970;2023-05-11T11:17:20;101358.38;;;22.89;68.28
39823;BME280;25499;53.958;10.970;2023-05-11T11:19:38;101352.19;;;23.09;69.53
39823;BME280;25499;53.958;10.970;2023-05-11T11:22:05;101307.66;;;22.95;65.95
39823;BME280;25499;53.958;10.970;2023-05-11T11:24:52;101326.63;;;22.86;66.21
39823;BME280;25499;53.958;10.970;2023-05-11T11:27:55;101292.97;;;23.07;63.96
39823;BME280;25499;53.958;10.970;2023-05-11T11:30:23;101317.38;;;22.76;64.54
39823;BME280;25499;53.958;10.970;2023-05-11T11:32:52;101328.81;;;22.57;65.81
39823;BME280;25499;53.958;10.970;2023-05-11T11:35:44;101343.19;;;22.72;67.50
39823;BME280;25499;53.958;10.970;2023-05-11T11:38:14;101353.69;;;22.75;67.76
39823;BME280;25499;53.958;10.970;2023-05-11T11:40:41;101336.00;;;22.74;67.46
39823;BME280;25499;53.958;10.970;2023-05-11T11:43:09;101349.94;;;23.00;67.70
39823;BME280;25499;53.958;10.970;2023-05-11T11:45:37;101315.84;;;23.09;65.37
39823;BME280;25499;53.958;10.970;2023-05-11T11:48:09;101344.28;;;23.26;66.70
39823;BME280;25499;53.958;10.970;2023-05-11T11:50:39;101324.88;;;23.05;65.69
39823;BME280;25499;53.958;10.970;2023-05-11T11:53:11;101331.28;;;23.39;65.33
39823;BME280;25499;53.958;10.970;2023-05-11T11:55:47;101336.25;;;23.28;65.46
39823;BME280;25499;53.958;10.970;2023-05-11T12:01:25;101297.47;;;23.43;63.52
39823;BME280;25499;53.958;10.970;2023-05-11T12:07:02;101301.19;;;23.01;63.64
39823;BME280;25499;53.958;10.970;2023-05-11T12:09:32;101283.91;;;22.52;62.02
39823;BME280;25499;53.958;10.970;2023-05-11T12:12:01;101296.19;;;22.34;63.23
39823;BME280;25499;53.958;10.970;2023-05-11T12:14:29;101306.94;;;22.31;64.21
39823;BME280;25499;53.958;10.970;2023-05-11T12:17:03;101351.53;;;22.64;66.33
39823;BME280;25499;53.958;10.970;2023-05-11T12:19:30;101309.63;;;22.50;64.36
39823;BME280;25499;53.958;10.970;2023-05-11T12:21:57;101316.75;;;22.50;64.66
39823;BME280;25499;53.958;10.970;2023-05-11T12:24:23;101334.47;;;22.49;65.72
39823;BME280;25499;53.958;10.970;2023-05-11T12:26:54;101312.50;;;22.46;64.36
39823;BME280;25499;53.958;10.970;2023-05-11T12:29:21;101320.97;;;22.33;64.76
39823;BME280;25499;53.958;10.970;2023-05-11T12:31:48;101299.38;;;22.43;63.86
39823;BME280;25499;53.958;10.970;2023-05-11T12:34:16;101326.97;;;21.96;64.75
39823;BME280;25499;53.958;10.970;2023-05-11T12:36:44;101314.41;;;21.79;65.12
39823;BME280;25499;53.958;10.970;2023-05-11T12:39:16;101331.13;;;21.59;65.71
39823;BME280;25499;53.958;10.970;2023-05-11T12:41:43;101301.44;;;21.27;64.88
39823;BME280;25499;53.958;10.970;2023-05-11T12:44:13;101320.97;;;21.01;66.20
39823;BME280;25499;53.958;10.970;2023-05-11T12:46:40;101321.91;;;21.00;65.93
39823;BME280;25499;53.958;10.970;2023-05-11T12:49:08;101330.47;;;21.07;66.70
39823;BME280;25499;53.958;10.970;2023-05-11T12:51:43;101326.50;;;20.95;66.64
39823;BME280;25499;53.958;10.970;2023-05-11T12:54:10;101324.13;;;20.87;67.43
39823;BME280;25499;53.958;10.970;2023-05-11T12:56:44;101314.63;;;20.81;66.53
39823;BME280;25499;53.958;10.970;2023-05-11T12:59:27;101313.13;;;20.49;66.90
39823;BME280;25499;53.958;10.970;2023-05-11T13:01:54;101304.66;;;20.39;65.93
39823;BME280;25499;53.958;10.970;2023-05-11T13:04:28;101310.59;;;19.94;67.31
39823;BME280;25499;53.958;10.970;2023-05-11T13:06:55;101319.41;;;19.66;68.53
39823;BME280;25499;53.958;10.970;2023-05-11T13:09:23;101341.56;;;19.62;70.21
39823;BME280;25499;53.958;10.970;2023-05-11T13:12:12;101345.88;;;19.93;71.16
39823;BME280;25499;53.958;10.970;2023-05-11T13:14:42;101352.06;;;19.92;71.44
39823;BME280;25499;53.958;10.970;2023-05-11T13:17:09;101340.44;;;19.98;71.63
39823;BME280;25499;53.958;10.970;2023-05-11T13:19:36;101336.06;;;19.68;71.07
39823;BME280;25499;53.958;10.970;2023-05-11T13:22:04;101335.00;;;19.75;71.79
39823;BME280;25499;53.958;10.970;2023-05-11T13:24:31;101338.50;;;19.76;71.97
39823;BME280;25499;53.958;10.970;2023-05-11T13:26:58;101361.41;;;20.02;74.92
39823;BME280;25499;53.958;10.970;2023-05-11T13:29:25;101352.28;;;20.12;75.04
39823;BME280;25499;53.958;10.970;2023-05-11T13:31:54;101361.38;;;20.30;75.27
39823;BME280;25499;53.958;10.970;2023-05-11T13:34:20;101329.09;;;20.21;73.28
39823;BME280;25499;53.958;10.970;2023-05-11T13:36:48;101323.25;;;20.11;71.70
39823;BME280;25499;53.958;10.970;2023-05-11T13:39:15;101304.72;;;19.86;69.97
39823;BME280;25499;53.958;10.970;2023-05-11T13:41:42;101307.94;;;19.67;70.57
39823;BME280;25499;53.958;10.970;2023-05-11T13:44:09;101306.50;;;19.57;71.23
39823;BME280;25499;53.958;10.970;2023-05-11T13:46:35;101313.88;;;19.46;72.49
39823;BME280;25499;53.958;10.970;2023-05-11T13:49:05;101321.72;;;19.49;72.67
39823;BME280;25499;53.958;10.970;2023-05-11T13:51:32;101317.84;;;19.31;72.97
39823;BME280;25499;53.958;10.970;2023-05-11T13:53:59;101305.78;;;19.22;72.12
39823;BME280;25499;53.958;10.970;2023-05-11T13:56:27;101313.00;;;19.17;73.24
39823;BME280;25499;53.958;10.970;2023-05-11T13:58:54;101315.34;;;19.26;73.53
39823;BME280;25499;53.958;10.970;2023-05-11T14:01:21;101328.03;;;19.43;74.81
39823;BME280;25499;53.958;10.970;2023-05-11T14:03:55;101340.28;;;19.75;76.51
39823;BME280;25499;53.958;10.970;2023-05-11T14:06:24;101322.91;;;19.95;75.04
39823;BME280;25499;53.958;10.970;2023-05-11T14:08:52;101328.22;;;19.93;74.04
39823;BME280;25499;53.958;10.970;2023-05-11T14:11:19;101311.47;;;19.94;73.91
39823;BME280;25499;53.958;10.970;2023-05-11T14:13:48;101313.22;;;19.94;74.07
39823;BME280;25499;53.958;10.970;2023-05-11T14:16:16;101293.31;;;19.84;72.92
39823;BME280;25499;53.958;10.970;2023-05-11T14:18:43;101300.53;;;19.79;72.50
39823;BME280;25499;53.958;10.970;2023-05-11T14:21:10;101291.53;;;19.56;73.21
39823;BME280;25499;53.958;10.970;2023-05-11T14:23:38;101302.19;;;19.53;73.31
39823;BME280;25499;53.958;10.970;2023-05-11T14:26:05;101302.06;;;19.29;74.35
39823;BME280;25499;53.958;10.970;2023-05-11T14:28:32;101307.59;;;19.22;74.51
39823;BME280;25499;53.958;10.970;2023-05-11T14:30:59;101284.91;;;19.14;73.26
39823;BME280;25499;53.958;10.970;2023-05-11T14:33:26;101299.59;;;18.93;74.36
39823;BME280;25499;53.958;10.970;2023-05-11T14:35:53;101291.22;;;19.09;74.11
39823;BME280;25499;53.958;10.970;2023-05-11T14:38:19;101294.88;;;19.05;74.27
39823;BME280;25499;53.958;10.970;2023-05-11T14:40:47;101287.94;;;19.00;73.80
39823;BME280;25499;53.958;10.970;2023-05-11T14:43:14;101287.88;;;19.04;74.82
39823;BME280;25499;53.958;10.970;2023-05-11T14:45:42;101283.84;;;18.90;75.19
39823;BME280;25499;53.958;10.970;2023-05-11T14:48:09;101283.84;;;18.90;75.31
39823;BME280;25499;53.958;10.970;2023-05-11T14:50:36;101273.94;;;18.98;74.57
39823;BME280;25499;53.958;10.970;2023-05-11T14:53:04;101274.66;;;19.04;74.78
39823;BME280;25499;53.958;10.970;2023-05-11T14:55:31;101266.50;;;18.83;73.95
39823;BME280;25499;53.958;10.970;2023-05-11T14:57:59;101266.25;;;18.59;74.72
39823;BME280;25499;53.958;10.970;2023-05-11T15:00:28;101263.88;;;18.50;74.54
39823;BME280;25499;53.958;10.970;2023-05-11T15:02:55;101256.56;;;18.60;74.10
39823;BME280;25499;53.958;10.970;2023-05-11T15:05:23;101262.56;;;18.34;73.75
39823;BME280;25499;53.958;10.970;2023-05-11T15:07:52;101267.72;;;18.38;74.75
39823;BME280;25499;53.958;10.970;2023-05-11T15:10:18;101274.03;;;18.31;74.90
39823;BME280;25499;53.958;10.970;2023-05-11T15:12:45;101273.81;;;18.07;75.52
39823;BME280;25499;53.958;10.970;2023-05-11T15:15:13;101276.03;;;17.88;75.94
39823;BME280;25499;53.958;10.970;2023-05-11T15:17:40;101281.06;;;17.62;77.35
39823;BME280;25499;53.958;10.970;2023-05-11T15:20:09;101302.03;;;17.65;77.97
39823;BME280;25499;53.958;10.970;2023-05-11T15:22:35;101294.38;;;17.56;78.54
39823;BME280;25499;53.958;10.970;2023-05-11T15:25:02;101298.91;;;17.49;78.86
39823;BME280;25499;53.958;10.970;2023-05-11T15:27:30;101303.69;;;17.31;80.12
39823;BME280;25499;53.958;10.970;2023-05-11T15:29:57;101303.50;;;17.39;80.27
39823;BME280;25499;53.958;10.970;2023-05-11T15:32:28;101298.28;;;17.38;80.51
39823;BME280;25499;53.958;10.970;2023-05-11T15:34:54;101311.47;;;17.36;80.84
39823;BME280;25499;53.958;10.970;2023-05-11T15:37:21;101306.34;;;17.30;82.17
39823;BME280;25499;53.958;10.970;2023-05-11T15:39:48;101305.38;;;17.34;81.88
39823;BME280;25499;53.958;10.970;2023-05-11T15:42:15;101303.06;;;17.20;83.15
39823;BME280;25499;53.958;10.970;2023-05-11T15:44:42;101312.78;;;17.17;84.31
39823;BME280;25499;53.958;10.970;2023-05-11T15:47:08;101307.47;;;17.20;83.68
39823;BME280;25499;53.958;10.970;2023-05-11T15:49:37;101305.56;;;17.26;84.43
39823;BME280;25499;53.958;10.970;2023-05-11T15:52:04;101313.75;;;17.12;85.26
39823;BME280;25499;53.958;10.970;2023-05-11T15:54:30;101313.28;;;17.34;84.77
39823;BME280;25499;53.958;10.970;2023-05-11T15:56:57;101309.75;;;17.35;85.23
39823;BME280;25499;53.958;10.970;2023-05-11T15:59:25;101309.88;;;17.29;84.81
39823;BME280;25499;53.958;10.970;2023-05-11T16:01:52;101305.44;;;17.31;85.18
39823;BME280;25499;53.958;10.970;2023-05-11T16:04:19;101302.19;;;17.20;85.33
39823;BME280;25499;53.958;10.970;2023-05-11T16:06:47;101312.66;;;17.23;86.54
39823;BME280;25499;53.958;10.970;2023-05-11T16:09:14;101306.47;;;17.24;85.38
39823;BME280;25499;53.958;10.970;2023-05-11T16:11:42;101303.91;;;17.21;86.61
39823;BME280;25499;53.958;10.970;2023-05-11T16:14:10;101299.59;;;17.18;85.18
39823;BME280;25499;53.958;10.970;2023-05-11T16:16:36;101313.81;;;17.09;86.04
39823;BME280;25499;53.958;10.970;2023-05-11T16:19:04;101305.22;;;17.01;85.27
39823;BME280;25499;53.958;10.970;2023-05-11T16:21:31;101295.47;;;17.06;84.74
39823;BME280;25499;53.958;10.970;2023-05-11T16:23:59;101301.88;;;16.93;86.01
39823;BME280;25499;53.958;10.970;2023-05-11T16:26:26;101310.56;;;16.96;86.84
39823;BME280;25499;53.958;10.970;2023-05-11T16:28:53;101311.50;;;16.94;86.91
39823;BME280;25499;53.958;10.970;2023-05-11T16:31:20;101309.00;;;16.88;86.92
39823;BME280;25499;53.958;10.970;2023-05-11T16:33:47;101312.53;;;16.85;87.88
39823;BME280;25499;53.958;10.970;2023-05-11T16:36:14;101311.63;;;16.88;88.93
39823;BME280;25499;53.958;10.970;2023-05-11T16:38:41;101309.88;;;16.87;90.00
39823;BME280;25499;53.958;10.970;2023-05-11T16:41:09;101312.50;;;16.88;90.03
39823;BME280;25499;53.958;10.970;2023-05-11T16:43:36;101315.19;;;16.85;90.37
39823;BME280;25499;53.958;10.970;2023-05-11T16:46:06;101307.34;;;16.82;89.49
39823;BME280;25499;53.958;10.970;2023-05-11T16:48:33;101319.56;;;16.83;90.29
39823;BME280;25499;53.958;10.970;2023-05-11T16:50:59;101321.28;;;16.89;91.61
39823;BME280;25499;53.958;10.970;2023-05-11T16:53:26;101314.31;;;16.85;90.69
39823;BME280;25499;53.958;10.970;2023-05-11T16:55:53;101311.75;;;16.80;90.38
39823;BME280;25499;53.958;10.970;2023-05-11T16:58:21;101306.44;;;16.85;88.45
39823;BME280;25499;53.958;10.970;2023-05-11T17:00:49;101309.09;;;16.82;88.62
39823;BME280;25499;53.958;10.970;2023-05-11T17:03:16;101312.59;;;16.82;89.76
39823;BME280;25499;53.958;10.970;2023-05-11T17:05:43;101319.78;;;16.72;92.63
39823;BME280;25499;53.958;10.970;2023-05-11T17:08:10;101327.91;;;16.62;94.38
39823;BME280;25499;53.958;10.970;2023-05-11T17:10:37;101332.28;;;16.61;95.56
39823;BME280;25499;53.958;10.970;2023-05-11T17:13:03;101325.28;;;16.62;94.31
39823;BME280;25499;53.958;10.970;2023-05-11T17:15:31;101320.97;;;16.56;94.06
39823;BME280;25499;53.958;10.970;2023-05-11T17:17:58;101322.81;;;16.51;94.58
39823;BME280;25499;53.958;10.970;2023-05-11T17:20:25;101339.59;;;16.45;97.10
39823;BME280;25499;53.958;10.970;2023-05-11T17:22:52;101343.22;;;16.38;98.67
39823;BME280;25499;53.958;10.970;2023-05-11T17:25:19;101344.97;;;16.37;100.00
39823;BME280;25499;53.958;10.970;2023-05-11T17:27:45;101349.38;;;16.35;99.48
39823;BME280;25499;53.958;10.970;2023-05-11T17:30:12;101338.91;;;16.34;97.52
39823;BME280;25499;53.958;10.970;2023-05-11T17:32:41;101335.38;;;16.36;95.85
39823;BME280;25499;53.958;10.970;2023-05-11T17:35:08;101338.78;;;16.41;94.44
39823;BME280;25499;53.958;10.970;2023-05-11T17:37:35;101336.88;;;16.50;92.88
39823;BME280;25499;53.958;10.970;2023-05-11T17:40:02;101335.19;;;16.46;91.92
39823;BME280;25499;53.958;10.970;2023-05-11T17:42:29;101331.63;;;16.50;90.97
39823;BME280;25499;53.958;10.970;2023-05-11T17:44:56;101322.91;;;16.46;89.00
39823;BME280;25499;53.958;10.970;2023-05-11T17:47:23;101320.09;;;16.57;87.55
39823;BME280;25499;53.958;10.970;2023-05-11T17:49:51;101319.25;;;16.56;87.37
39823;BME280;25499;53.958;10.970;2023-05-11T17:52:18;101324.56;;;16.52;87.23
39823;BME280;25499;53.958;10.970;2023-05-11T17:54:45;101339.59;;;16.45;90.57
39823;BME280;25499;53.958;10.970;2023-05-11T17:57:19;101353.88;;;16.29;95.23
39823;BME280;25499;53.958;10.970;2023-05-11T17:59:47;101357.59;;;16.17;97.58
39823;BME280;25499;53.958;10.970;2023-05-11T18:02:14;101362.16;;;16.06;98.06
39823;BME280;25499;53.958;10.970;2023-05-11T18:04:41;101362.28;;;15.96;98.70
39823;BME280;25499;53.958;10.970;2023-05-11T18:07:09;101365.75;;;15.98;98.80
39823;BME280;25499;53.958;10.970;2023-05-11T18:09:36;101371.13;;;15.92;99.34
39823;BME280;25499;53.958;10.970;2023-05-11T18:12:05;101378.19;;;15.89;99.04
39823;BME280;25499;53.958;10.970;2023-05-11T18:14:32;101374.63;;;15.91;98.78
39823;BME280;25499;53.958;10.970;2023-05-11T18:16:59;101378.22;;;15.87;98.40